Terminal Aerodrome Forecast
Issued by NWS Grand Forks, ND

Home | Current Version | Previous Version | Text Only | Print | Product List | Glossary Off
Versions: 1 2 3 4 5 6 7 8 9 10 11 12

000
FTUS43 KFGF 180500
TAFFAR
TAF
KFAR 180522Z 1806/1906 VRB02KT P6SM SKC
     FM182100 15008KT P6SM BKN100
     FM190500 17010KT P6SM BKN030=

USA.gov is the U.S. government's official web portal to all federal, state and local government web resources and services.